createdAt,value
2017-09-23T00:02:22.562Z,16.82
2017-09-23T00:04:50.194Z,16.80
2017-09-23T00:07:17.793Z,16.72
2017-09-23T00:09:45.435Z,16.61
2017-09-23T00:12:13.110Z,16.56
2017-09-23T00:14:40.763Z,16.58
2017-09-23T00:17:08.435Z,16.62
2017-09-23T00:19:36.126Z,16.64
2017-09-23T00:22:03.738Z,16.67
2017-09-23T00:24:31.431Z,16.68
2017-09-23T00:26:59.036Z,16.66
2017-09-23T00:29:26.646Z,16.65
2017-09-23T00:31:54.277Z,16.58
2017-09-23T00:34:21.879Z,16.53
2017-09-23T00:36:49.518Z,16.51
2017-09-23T00:39:17.118Z,16.47
2017-09-23T00:41:44.750Z,16.34
2017-09-23T00:44:12.454Z,16.35
2017-09-23T00:46:40.133Z,16.29
2017-09-23T00:49:07.750Z,16.35
2017-09-23T00:51:35.382Z,16.39
2017-09-23T00:54:02.999Z,16.40
2017-09-23T00:56:30.658Z,16.41
2017-09-23T00:58:58.275Z,16.43
2017-09-23T01:01:25.928Z,16.44
2017-09-23T01:03:53.550Z,16.41
2017-09-23T01:06:21.239Z,16.39
2017-09-23T01:08:48.836Z,16.38
2017-09-23T01:11:16.458Z,16.38
2017-09-23T01:13:44.094Z,16.41
2017-09-23T01:16:11.723Z,16.35
2017-09-23T01:18:39.378Z,16.30
2017-09-23T01:21:06.985Z,16.28
2017-09-23T01:23:34.598Z,16.30
2017-09-23T01:26:02.219Z,16.35
2017-09-23T01:28:29.823Z,16.39
2017-09-23T01:30:57.425Z,16.43
2017-09-23T01:33:25.061Z,16.46
2017-09-23T01:35:52.686Z,16.49
2017-09-23T01:38:20.315Z,16.47
2017-09-23T01:40:47.919Z,16.48
2017-09-23T01:43:15.562Z,16.52
2017-09-23T01:45:43.355Z,16.51
2017-09-23T01:48:11.014Z,16.50
2017-09-23T01:50:38.680Z,16.46
2017-09-23T01:53:06.307Z,16.40
2017-09-23T01:55:33.918Z,16.38
2017-09-23T01:58:01.540Z,16.41
2017-09-23T02:00:29.170Z,16.41
2017-09-23T02:02:56.807Z,16.33
2017-09-23T02:05:24.414Z,16.25
2017-09-23T02:07:52.078Z,16.21
2017-09-23T02:10:19.751Z,16.20
2017-09-23T02:12:47.386Z,16.15
2017-09-23T02:15:14.983Z,16.09
2017-09-23T02:17:42.674Z,16.10
2017-09-23T02:20:10.283Z,16.05
2017-09-23T02:22:38.410Z,16.04
2017-09-23T02:25:06.025Z,15.99
2017-09-23T02:27:33.649Z,16.01
2017-09-23T02:30:01.258Z,15.97
2017-09-23T02:32:28.869Z,15.96
2017-09-23T02:34:56.499Z,15.94
2017-09-23T02:37:24.109Z,15.90
2017-09-23T02:39:51.760Z,15.88
2017-09-23T02:42:19.386Z,15.92
2017-09-23T02:44:47.022Z,15.92
2017-09-23T02:47:14.614Z,15.91
2017-09-23T02:49:42.260Z,15.91
2017-09-23T02:52:09.859Z,15.91
2017-09-23T02:54:37.498Z,15.96
2017-09-23T02:57:05.095Z,15.95
2017-09-23T02:59:32.742Z,15.98
2017-09-23T03:02:00.355Z,15.91
2017-09-23T03:04:27.984Z,15.92
2017-09-23T03:06:55.581Z,15.92
2017-09-23T03:09:23.234Z,15.95
2017-09-23T03:11:50.871Z,15.96
2017-09-23T03:14:18.522Z,15.97
2017-09-23T03:16:46.122Z,15.91
2017-09-23T03:19:13.792Z,15.85
2017-09-23T03:21:41.430Z,15.89
2017-09-23T03:24:09.151Z,15.91
2017-09-23T03:26:36.755Z,15.89
2017-09-23T03:29:04.374Z,15.88
2017-09-23T03:31:31.980Z,15.87
2017-09-23T03:33:59.626Z,15.87
2017-09-23T03:36:27.235Z,15.80
2017-09-23T03:38:54.898Z,15.83
2017-09-23T03:41:22.490Z,15.81
2017-09-23T03:43:50.118Z,15.78
2017-09-23T03:46:17.720Z,15.75
2017-09-23T03:48:45.346Z,15.79
2017-09-23T03:51:12.931Z,15.79
2017-09-23T03:53:40.589Z,15.74
2017-09-23T03:56:08.221Z,15.70
2017-09-23T03:58:35.879Z,15.67
2017-09-23T04:01:03.616Z,15.69
2017-09-23T04:03:31.266Z,15.71
2017-09-23T04:05:58.879Z,15.70
2017-09-23T04:08:26.526Z,15.71
2017-09-23T04:10:54.122Z,15.73
2017-09-23T04:13:22.826Z,15.78
2017-09-23T04:15:50.424Z,15.78
2017-09-23T04:18:18.058Z,15.78
2017-09-23T04:20:45.659Z,15.77
2017-09-23T04:23:13.302Z,15.79
2017-09-23T04:25:40.906Z,15.75
2017-09-23T04:28:08.541Z,15.74
2017-09-23T04:30:36.139Z,15.66
2017-09-23T04:33:03.783Z,15.63
2017-09-23T04:35:31.384Z,15.67
2017-09-23T04:37:58.991Z,15.71
2017-09-23T04:40:26.639Z,15.70
2017-09-23T04:42:54.299Z,15.70
2017-09-23T04:45:21.906Z,15.72
2017-09-23T04:47:49.514Z,15.68
2017-09-23T04:50:17.135Z,15.59
2017-09-23T04:52:44.737Z,15.50
2017-09-23T04:55:12.365Z,15.45
2017-09-23T04:57:39.965Z,15.43
2017-09-23T05:00:07.626Z,15.44
2017-09-23T05:02:35.238Z,15.45
2017-09-23T05:05:02.891Z,15.42
2017-09-23T05:07:30.488Z,15.41
2017-09-23T05:09:58.111Z,15.41
2017-09-23T05:12:25.723Z,15.44
2017-09-23T05:14:53.354Z,15.41
2017-09-23T05:17:20.959Z,15.43
2017-09-23T05:19:48.582Z,15.45
2017-09-23T05:22:16.205Z,15.46
2017-09-23T05:24:43.845Z,15.48
2017-09-23T05:27:11.497Z,15.47
2017-09-23T05:29:39.125Z,15.48
2017-09-23T05:32:06.739Z,15.46
2017-09-23T05:34:34.392Z,15.43
2017-09-23T05:37:02.047Z,15.40
2017-09-23T05:39:29.661Z,15.37
2017-09-23T05:41:57.267Z,15.35
2017-09-23T05:44:24.908Z,15.36
2017-09-23T05:46:52.506Z,15.37
2017-09-23T05:49:20.172Z,15.39
2017-09-23T05:51:47.777Z,15.40
2017-09-23T05:54:15.400Z,15.37
2017-09-23T05:56:43.003Z,15.32
2017-09-23T05:59:10.774Z,15.33
2017-09-23T06:01:38.377Z,15.39
2017-09-23T06:04:06.033Z,15.37
2017-09-23T06:06:33.654Z,15.35
2017-09-23T06:09:01.254Z,15.34
2017-09-23T06:11:28.882Z,15.37
2017-09-23T06:13:56.789Z,15.38
2017-09-23T06:16:24.440Z,15.37
2017-09-23T06:18:52.054Z,15.41
2017-09-23T06:21:19.707Z,15.46
2017-09-23T06:23:47.333Z,15.49
2017-09-23T06:26:14.966Z,15.51
2017-09-23T06:28:42.581Z,15.51
2017-09-23T06:31:10.251Z,15.49
2017-09-23T06:33:37.850Z,15.45
2017-09-23T06:36:05.483Z,15.48
2017-09-23T06:38:33.091Z,15.46
2017-09-23T06:41:00.745Z,15.40
2017-09-23T06:43:28.430Z,15.40
2017-09-23T06:45:56.102Z,15.42
2017-09-23T06:48:23.734Z,15.42
2017-09-23T06:50:51.330Z,15.42
2017-09-23T06:53:18.959Z,15.45
2017-09-23T06:55:46.619Z,15.48
2017-09-23T06:58:14.263Z,15.49
2017-09-23T07:00:41.873Z,15.53
2017-09-23T07:03:09.499Z,15.60
2017-09-23T07:05:37.175Z,15.66
2017-09-23T07:08:04.813Z,15.64
2017-09-23T07:10:32.406Z,15.65
2017-09-23T07:13:00.142Z,15.65
2017-09-23T07:18:03.707Z,15.67
2017-09-23T07:20:32.597Z,15.72
2017-09-23T07:23:00.239Z,15.78
2017-09-23T07:25:27.848Z,15.81
2017-09-23T07:27:55.490Z,15.86
2017-09-23T07:30:23.083Z,15.88
2017-09-23T07:32:50.719Z,15.90
2017-09-23T07:35:18.342Z,15.88
2017-09-23T07:37:45.976Z,15.88
2017-09-23T07:40:13.595Z,15.84
2017-09-23T07:42:41.240Z,15.86
2017-09-23T07:45:08.838Z,15.81
2017-09-23T07:47:36.485Z,15.77
2017-09-23T07:50:04.171Z,15.73
2017-09-23T07:52:31.826Z,15.85
2017-09-23T07:54:59.430Z,16.08
2017-09-23T07:57:27.175Z,16.16
2017-09-23T07:59:54.786Z,16.25
2017-09-23T08:02:22.427Z,16.32
2017-09-23T08:04:50.088Z,16.28
2017-09-23T08:07:17.720Z,16.22
2017-09-23T08:09:45.446Z,16.06
2017-09-23T08:12:13.090Z,16.02
2017-09-23T08:14:41.020Z,16.09
2017-09-23T08:17:08.692Z,16.03
2017-09-23T08:19:36.370Z,15.97
2017-09-23T08:22:05.632Z,15.98
2017-09-23T08:24:33.284Z,16.04
2017-09-23T08:27:01.114Z,16.07
2017-09-23T08:29:28.724Z,16.11
2017-09-23T08:31:56.380Z,16.11
2017-09-23T08:34:23.994Z,16.17
2017-09-23T08:36:51.603Z,16.23
2017-09-23T08:39:19.230Z,16.28
2017-09-23T08:41:46.997Z,16.37
2017-09-23T08:44:14.633Z,16.39
2017-09-23T08:46:42.330Z,16.40
2017-09-23T08:49:10.124Z,16.40
2017-09-23T08:51:37.731Z,16.48
2017-09-23T08:54:05.377Z,16.48
2017-09-23T08:56:32.974Z,16.51
2017-09-23T08:59:00.674Z,16.56
2017-09-23T09:01:28.286Z,16.63
2017-09-23T09:03:55.984Z,16.68
2017-09-23T09:06:23.589Z,16.77
2017-09-23T09:08:51.215Z,16.84
2017-09-23T09:11:18.855Z,16.86
2017-09-23T09:13:46.503Z,16.90
2017-09-23T09:16:14.102Z,16.94
2017-09-23T09:18:41.750Z,16.88
2017-09-23T09:21:09.388Z,16.85
2017-09-23T09:23:37.013Z,16.89
2017-09-23T09:26:04.638Z,16.77
2017-09-23T09:28:32.283Z,16.70
2017-09-23T09:30:59.896Z,16.81
2017-09-23T09:33:27.552Z,17.00
2017-09-23T09:35:55.170Z,17.21
2017-09-23T09:38:22.850Z,17.45
2017-09-23T09:40:50.490Z,17.59
2017-09-23T09:43:18.100Z,17.70
2017-09-23T09:45:45.742Z,17.80
2017-09-23T09:48:13.366Z,17.95
2017-09-23T09:50:40.981Z,18.01
2017-09-23T09:53:08.665Z,17.84
2017-09-23T09:55:36.282Z,17.91
2017-09-23T09:58:03.934Z,17.77
2017-09-23T10:00:31.554Z,17.57
2017-09-23T10:02:59.154Z,17.53
2017-09-23T10:05:26.849Z,17.49
2017-09-23T10:07:54.866Z,17.34
2017-09-23T10:10:22.523Z,17.36
2017-09-23T10:12:50.132Z,17.37
2017-09-23T10:15:17.786Z,17.46
2017-09-23T10:17:45.424Z,17.75
2017-09-23T10:20:13.174Z,18.22
2017-09-23T10:22:40.791Z,18.60
2017-09-23T10:25:08.443Z,18.83
2017-09-23T10:27:36.060Z,18.99
2017-09-23T10:30:03.695Z,19.07
2017-09-23T10:32:31.300Z,19.07
2017-09-23T10:34:59.057Z,19.24
2017-09-23T10:37:26.701Z,19.23
2017-09-23T10:39:54.334Z,19.11
2017-09-23T10:42:21.955Z,19.03
2017-09-23T10:44:49.822Z,18.90
2017-09-23T10:47:18.087Z,18.97
2017-09-23T10:49:45.752Z,19.26
2017-09-23T10:52:13.358Z,19.50
2017-09-23T10:54:40.994Z,19.73
2017-09-23T10:57:08.603Z,19.89
2017-09-23T10:59:36.227Z,20.16
2017-09-23T11:02:03.879Z,20.22
2017-09-23T11:04:31.541Z,20.16
2017-09-23T11:06:59.195Z,20.00
2017-09-23T11:09:26.873Z,19.75
2017-09-23T11:11:54.615Z,19.65
2017-09-23T11:14:22.253Z,20.11
2017-09-23T11:16:49.871Z,20.22
2017-09-23T11:19:17.524Z,20.36
2017-09-23T11:21:45.153Z,20.54
2017-09-23T11:24:12.820Z,20.64
2017-09-23T11:26:40.427Z,20.94
2017-09-23T11:29:08.091Z,21.10
2017-09-23T11:31:35.695Z,21.35
2017-09-23T11:34:03.336Z,21.52
2017-09-23T11:36:30.941Z,21.61
2017-09-23T11:38:58.571Z,21.56
2017-09-23T11:41:26.230Z,21.64
2017-09-23T11:43:53.870Z,21.53
2017-09-23T11:46:21.479Z,20.96
2017-09-23T11:48:49.126Z,20.88
2017-09-23T11:51:16.795Z,21.11
2017-09-23T11:53:44.447Z,21.49
2017-09-23T11:56:12.061Z,21.63
2017-09-23T11:58:39.758Z,21.94
2017-09-23T12:01:07.359Z,21.90
2017-09-23T12:03:34.977Z,21.44
2017-09-23T12:06:02.607Z,21.39
2017-09-23T12:08:30.255Z,21.56
2017-09-23T12:10:57.874Z,21.28
2017-09-23T12:13:25.515Z,21.56
2017-09-23T12:15:53.114Z,21.80
2017-09-23T12:18:20.781Z,22.25
2017-09-23T12:20:48.390Z,22.49
2017-09-23T12:23:16.014Z,22.55
2017-09-23T12:25:43.642Z,22.73
2017-09-23T12:28:11.259Z,22.86
2017-09-23T12:30:39.042Z,23.33
2017-09-23T12:33:06.659Z,23.34
2017-09-23T12:35:34.305Z,23.59
2017-09-23T12:38:01.926Z,23.26
2017-09-23T12:40:29.569Z,23.09
2017-09-23T12:42:57.186Z,23.24
2017-09-23T12:45:24.850Z,23.69
2017-09-23T12:47:52.447Z,23.96
2017-09-23T12:50:20.110Z,23.79
2017-09-23T12:52:47.706Z,23.73
2017-09-23T12:55:15.352Z,23.08
2017-09-23T12:57:42.969Z,22.80
2017-09-23T13:00:10.631Z,23.11
2017-09-23T13:02:38.766Z,23.41
2017-09-23T13:05:06.433Z,23.70
2017-09-23T13:07:34.047Z,23.94
2017-09-23T13:10:01.689Z,24.09
2017-09-23T13:12:29.404Z,23.90
2017-09-23T13:14:57.026Z,23.97
2017-09-23T13:17:24.641Z,24.02
2017-09-23T13:19:52.284Z,23.86
2017-09-23T13:22:19.906Z,24.11
2017-09-23T13:24:47.535Z,24.28
2017-09-23T13:27:15.147Z,24.22
2017-09-23T13:29:42.810Z,24.29
2017-09-23T13:32:10.434Z,23.89
2017-09-23T13:34:38.071Z,23.99
2017-09-23T13:37:05.694Z,24.27
2017-09-23T13:39:33.343Z,24.05
2017-09-23T13:42:00.988Z,24.06
2017-09-23T13:44:28.663Z,23.41
2017-09-23T13:46:56.279Z,23.71
2017-09-23T13:49:23.924Z,24.39
2017-09-23T13:51:51.650Z,23.97
2017-09-23T13:54:19.311Z,24.00
2017-09-23T13:56:46.974Z,24.23
2017-09-23T13:59:14.785Z,24.46
2017-09-23T14:01:42.421Z,24.42
2017-09-23T14:04:10.201Z,24.23
2017-09-23T14:06:37.844Z,24.23
2017-09-23T14:09:05.541Z,24.44
2017-09-23T14:11:33.181Z,24.64
2017-09-23T14:14:00.786Z,24.96
2017-09-23T14:16:28.426Z,25.20
2017-09-23T14:18:56.065Z,24.90
2017-09-23T14:21:23.696Z,25.04
2017-09-23T14:23:51.301Z,24.64
2017-09-23T14:26:18.948Z,24.09
2017-09-23T14:28:46.562Z,23.74
2017-09-23T14:31:14.208Z,23.79
2017-09-23T14:33:41.828Z,24.06
2017-09-23T14:36:09.460Z,23.90
2017-09-23T14:38:37.080Z,24.16
2017-09-23T14:41:04.826Z,23.96
2017-09-23T14:43:32.455Z,24.11
2017-09-23T14:46:00.108Z,24.01
2017-09-23T14:48:27.726Z,23.96
2017-09-23T14:50:55.367Z,24.08
2017-09-23T14:53:22.978Z,24.28
2017-09-23T14:55:50.703Z,24.11
2017-09-23T14:58:18.321Z,23.66
2017-09-23T15:00:45.924Z,23.54
2017-09-23T15:03:13.566Z,23.32
2017-09-23T15:05:41.185Z,23.56
2017-09-23T15:08:08.839Z,23.48
2017-09-23T15:10:36.453Z,23.71
2017-09-23T15:13:04.320Z,23.87
2017-09-23T15:15:32.062Z,23.49
2017-09-23T15:17:59.706Z,23.09
2017-09-23T15:20:27.344Z,23.41
2017-09-23T15:22:54.997Z,23.42
2017-09-23T15:25:22.671Z,23.32
2017-09-23T15:27:50.347Z,23.60
2017-09-23T15:30:18.098Z,23.00
2017-09-23T15:32:45.767Z,23.19
2017-09-23T15:35:13.369Z,23.31
2017-09-23T15:37:41.018Z,23.29
2017-09-23T15:40:08.619Z,22.87
2017-09-23T15:42:37.084Z,22.76
2017-09-23T15:45:04.847Z,22.73
2017-09-23T15:47:32.553Z,22.40
2017-09-23T15:50:00.160Z,22.33
2017-09-23T15:52:27.834Z,22.34
2017-09-23T15:54:56.815Z,22.36
2017-09-23T15:57:24.531Z,22.16
2017-09-23T15:59:52.130Z,22.40
2017-09-23T16:02:19.762Z,22.07
2017-09-23T16:04:47.372Z,22.11
2017-09-23T16:07:15.066Z,22.47
2017-09-23T16:09:42.705Z,22.75
2017-09-23T16:12:10.439Z,22.85
2017-09-23T16:14:38.087Z,22.73
2017-09-23T16:17:05.732Z,22.67
2017-09-23T16:19:33.322Z,22.77
2017-09-23T16:22:00.961Z,22.84
2017-09-23T16:24:28.565Z,22.67
2017-09-23T16:26:56.195Z,22.35
2017-09-23T16:29:23.842Z,22.37
2017-09-23T16:31:51.466Z,22.32
2017-09-23T16:34:19.080Z,22.33
2017-09-23T16:36:46.769Z,22.21
2017-09-23T16:39:14.393Z,22.19
2017-09-23T16:41:42.013Z,22.12
2017-09-23T16:44:09.896Z,21.99
2017-09-23T16:46:37.497Z,21.77
2017-09-23T16:49:05.135Z,21.68
2017-09-23T16:51:32.748Z,21.61
2017-09-23T16:54:00.382Z,21.49
2017-09-23T16:56:27.999Z,21.41
2017-09-23T16:58:55.637Z,21.37
2017-09-23T17:01:23.323Z,21.31
2017-09-23T17:03:50.958Z,21.24
2017-09-23T17:06:18.619Z,21.17
2017-09-23T17:08:46.276Z,21.07
2017-09-23T17:11:13.902Z,21.02
2017-09-23T17:13:41.538Z,20.94
2017-09-23T17:16:09.186Z,20.88
2017-09-23T17:18:36.956Z,20.84
2017-09-23T17:21:04.562Z,20.77
2017-09-23T17:23:32.279Z,20.73
2017-09-23T17:25:59.881Z,20.71
2017-09-23T17:28:27.595Z,20.66
2017-09-23T17:30:55.231Z,20.62
2017-09-23T17:33:22.853Z,20.54
2017-09-23T17:35:50.527Z,20.46
2017-09-23T17:38:18.138Z,20.37
2017-09-23T17:40:45.792Z,20.38
2017-09-23T17:43:13.454Z,20.47
2017-09-23T17:45:41.139Z,20.54
2017-09-23T17:48:08.762Z,20.56
2017-09-23T17:50:36.429Z,20.57
2017-09-23T17:53:04.107Z,20.57
2017-09-23T17:55:31.751Z,20.49
2017-09-23T17:57:59.396Z,20.37
2017-09-23T18:00:27.023Z,20.23
2017-09-23T18:02:54.659Z,20.13
2017-09-23T18:05:22.291Z,20.01
2017-09-23T18:07:49.927Z,19.94
2017-09-23T18:10:17.634Z,19.87
2017-09-23T18:12:45.317Z,19.79
2017-09-23T18:15:12.928Z,19.77
2017-09-23T18:17:40.576Z,19.73
2017-09-23T18:20:08.188Z,19.71
2017-09-23T18:22:35.795Z,19.60
2017-09-23T18:25:03.571Z,19.58
2017-09-23T18:27:31.212Z,19.56
2017-09-23T18:29:58.846Z,19.47
2017-09-23T18:32:26.462Z,19.42
2017-09-23T18:34:54.158Z,19.40
2017-09-23T18:37:21.782Z,19.34
2017-09-23T18:39:49.421Z,19.33
2017-09-23T18:42:17.083Z,19.27
2017-09-23T18:44:44.715Z,19.26
2017-09-23T18:47:12.351Z,19.24
2017-09-23T18:49:40.021Z,19.18
2017-09-23T18:52:07.628Z,19.14
2017-09-23T18:54:35.250Z,19.09
2017-09-23T18:57:02.926Z,19.04
2017-09-23T18:59:30.594Z,18.96
2017-09-23T19:01:58.247Z,18.94
2017-09-23T19:04:25.899Z,18.92
2017-09-23T19:06:53.503Z,18.89
2017-09-23T19:09:21.135Z,18.86
2017-09-23T19:11:48.753Z,18.79
2017-09-23T19:14:16.422Z,18.73
2017-09-23T19:16:44.026Z,18.73
2017-09-23T19:19:11.664Z,18.72
2017-09-23T19:21:39.283Z,18.65
2017-09-23T19:24:06.992Z,18.62
2017-09-23T19:26:34.733Z,18.62
2017-09-23T19:29:02.362Z,18.53
2017-09-23T19:31:29.962Z,18.50
2017-09-23T19:33:57.596Z,18.50
2017-09-23T19:36:25.219Z,18.46
2017-09-23T19:38:52.876Z,18.45
2017-09-23T19:41:20.490Z,18.42
2017-09-23T19:43:48.114Z,18.44
2017-09-23T19:46:15.741Z,18.41
2017-09-23T19:48:43.382Z,18.36
2017-09-23T19:53:44.782Z,18.24
2017-09-23T19:56:12.404Z,18.22
2017-09-23T19:58:40.044Z,18.15
2017-09-23T20:01:07.663Z,18.14
2017-09-23T20:03:35.311Z,18.10
2017-09-23T20:06:03.047Z,18.11
2017-09-23T20:08:30.704Z,18.06
2017-09-23T20:10:58.327Z,18.04
2017-09-23T20:13:25.962Z,17.97
2017-09-23T20:15:53.589Z,17.93
2017-09-23T20:18:21.266Z,17.86
2017-09-23T20:20:48.857Z,17.84
2017-09-23T20:23:16.511Z,17.82
2017-09-23T20:25:44.152Z,17.77
2017-09-23T20:28:11.787Z,17.63
2017-09-23T20:30:39.466Z,17.60
2017-09-23T20:33:07.077Z,17.61
2017-09-23T20:35:34.732Z,17.61
2017-09-23T20:38:02.339Z,17.60
2017-09-23T20:40:29.975Z,17.47
2017-09-23T20:42:57.621Z,17.38
2017-09-23T20:45:25.297Z,17.44
2017-09-23T20:47:52.910Z,17.41
2017-09-23T20:50:20.608Z,17.42
2017-09-23T20:52:48.213Z,17.42
2017-09-23T20:55:15.834Z,17.41
2017-09-23T20:57:43.470Z,17.38
2017-09-23T21:00:11.137Z,17.35
2017-09-23T21:02:38.767Z,17.36
2017-09-23T21:05:06.390Z,17.29
2017-09-23T21:07:34.035Z,17.22
2017-09-23T21:10:01.730Z,17.13
2017-09-23T21:12:29.427Z,17.12
2017-09-23T21:14:57.034Z,17.11
2017-09-23T21:17:24.690Z,17.13
2017-09-23T21:19:52.374Z,17.01
2017-09-23T21:22:20.043Z,16.96
2017-09-23T21:24:47.671Z,16.94
2017-09-23T21:27:15.318Z,16.96
2017-09-23T21:29:43.012Z,16.92
2017-09-23T21:32:10.642Z,16.89
2017-09-23T21:34:38.267Z,16.86
2017-09-23T21:37:05.918Z,16.82
2017-09-23T21:39:33.565Z,16.86
2017-09-23T21:42:01.230Z,16.85
2017-09-23T21:44:28.931Z,16.85
2017-09-23T21:46:56.575Z,16.82
2017-09-23T21:49:24.175Z,16.76
2017-09-23T21:51:51.771Z,16.74
2017-09-23T21:54:19.398Z,16.75
2017-09-23T21:56:47.866Z,16.66
2017-09-23T21:59:15.469Z,16.58
2017-09-23T22:01:43.465Z,16.55
2017-09-23T22:04:11.237Z,16.55
2017-09-23T22:06:39.768Z,16.52
2017-09-23T22:09:08.556Z,16.52
2017-09-23T22:11:36.171Z,16.47
2017-09-23T22:14:03.830Z,16.53
2017-09-23T22:16:31.453Z,16.50
2017-09-23T22:18:59.080Z,16.47
2017-09-23T22:21:26.775Z,16.46
2017-09-23T22:23:54.428Z,16.45
2017-09-23T22:26:22.039Z,16.47
2017-09-23T22:28:49.693Z,16.48
2017-09-23T22:31:17.351Z,16.46
2017-09-23T22:33:44.979Z,16.47
2017-09-23T22:36:12.600Z,16.43
2017-09-23T22:38:40.241Z,16.30
2017-09-23T22:41:07.871Z,16.22
2017-09-23T22:43:35.522Z,16.13
2017-09-23T22:46:03.167Z,16.10
2017-09-23T22:48:30.767Z,16.00
2017-09-23T22:50:58.395Z,16.00
2017-09-23T22:53:26.058Z,15.97
2017-09-23T22:55:53.698Z,15.92
2017-09-23T22:58:21.291Z,15.92
2017-09-23T23:00:48.945Z,16.00
2017-09-23T23:03:16.562Z,15.99
2017-09-23T23:05:44.227Z,16.01
2017-09-23T23:08:11.824Z,16.03
2017-09-23T23:10:39.466Z,16.04
2017-09-23T23:13:07.056Z,15.99
2017-09-23T23:15:34.679Z,15.98
2017-09-23T23:18:02.290Z,15.95
2017-09-23T23:20:29.916Z,15.79
2017-09-23T23:22:57.533Z,15.57
2017-09-23T23:25:25.187Z,15.55
2017-09-23T23:27:52.818Z,15.54
2017-09-23T23:30:20.446Z,15.45
2017-09-23T23:32:48.075Z,15.48
2017-09-23T23:35:15.734Z,15.48
2017-09-23T23:37:43.353Z,15.46
2017-09-23T23:40:10.970Z,15.42
2017-09-23T23:42:38.614Z,15.44
2017-09-23T23:45:06.241Z,15.38
2017-09-23T23:47:33.844Z,15.32
2017-09-23T23:50:01.524Z,15.27
2017-09-23T23:52:29.178Z,15.34
2017-09-23T23:54:56.815Z,15.37
2017-09-23T23:57:24.435Z,15.34
2017-09-23T23:59:52.066Z,15.25
